createdAt,value
2018-02-08T00:01:20.064Z,-0.80
2018-02-08T00:03:46.690Z,-0.80
2018-02-08T00:06:13.291Z,-0.80
2018-02-08T00:08:39.528Z,-0.80
2018-02-08T00:11:06.118Z,-0.90
2018-02-08T00:13:32.367Z,-0.90
2018-02-08T00:15:58.947Z,-0.90
2018-02-08T00:18:25.535Z,-0.90
2018-02-08T00:20:51.796Z,-0.90
2018-02-08T00:23:18.023Z,-0.90
2018-02-08T00:25:44.625Z,-0.90
2018-02-08T00:28:11.226Z,-0.80
2018-02-08T00:30:38.199Z,-0.80
2018-02-08T00:33:05.255Z,-0.70
2018-02-08T00:35:31.852Z,-0.70
2018-02-08T00:37:58.098Z,-0.70
2018-02-08T00:40:24.349Z,-0.60
2018-02-08T00:42:50.942Z,-0.70
2018-02-08T00:45:17.597Z,-0.70
2018-02-08T00:47:43.826Z,-0.70
2018-02-08T00:50:10.389Z,-0.70
2018-02-08T00:52:36.978Z,-0.70
2018-02-08T00:55:04.314Z,-0.70
2018-02-08T00:57:30.910Z,-0.70
2018-02-08T00:59:57.615Z,-0.70
2018-02-08T01:02:24.331Z,-0.60
2018-02-08T01:04:50.558Z,-0.70
2018-02-08T01:07:18.090Z,-0.70
2018-02-08T01:09:44.679Z,-0.60
2018-02-08T01:12:11.292Z,-0.60
2018-02-08T01:14:37.526Z,-0.60
2018-02-08T01:17:04.126Z,-0.60
2018-02-08T01:19:30.347Z,-0.60
2018-02-08T01:21:56.578Z,-0.60
2018-02-08T01:24:22.810Z,-0.60
2018-02-08T01:26:49.039Z,-0.60
2018-02-08T01:29:16.010Z,-0.60
2018-02-08T01:31:42.266Z,-0.60
2018-02-08T01:34:08.847Z,-0.70
2018-02-08T01:36:35.054Z,-0.70
2018-02-08T01:39:01.299Z,-0.70
2018-02-08T01:41:27.523Z,-0.70
2018-02-08T01:43:53.800Z,-0.70
2018-02-08T01:46:20.435Z,-0.70
2018-02-08T01:48:47.038Z,-0.70
2018-02-08T01:51:13.634Z,-0.60
2018-02-08T01:53:39.903Z,-0.60
2018-02-08T01:56:06.130Z,-0.60
2018-02-08T01:58:32.738Z,-0.60
2018-02-08T02:00:58.954Z,-0.60
2018-02-08T02:03:25.223Z,-0.70
2018-02-08T02:05:51.428Z,-0.70
2018-02-08T03:09:20.382Z,-0.90
2018-02-08T03:11:47.054Z,-0.90
2018-02-08T03:14:13.632Z,-0.90
2018-02-08T03:16:39.846Z,-0.90
2018-02-08T03:19:06.238Z,-0.80
2018-02-08T03:21:32.854Z,-0.80
2018-02-08T03:23:59.058Z,-0.80
2018-02-08T03:26:25.651Z,-0.80
2018-02-08T03:28:56.934Z,-0.80
2018-02-08T03:31:25.707Z,-0.70
2018-02-08T03:36:19.854Z,-0.60
2018-02-08T03:38:46.077Z,-0.60
2018-02-08T03:41:12.275Z,-0.60
2018-02-08T03:43:38.875Z,-0.60
2018-02-08T03:46:05.450Z,-0.60
2018-02-08T03:48:31.711Z,-0.60
2018-02-08T03:50:57.909Z,-0.50
2018-02-08T03:53:24.125Z,-0.50
2018-02-08T03:55:50.325Z,-0.50
2018-02-08T03:58:16.934Z,-0.60
2018-02-08T04:00:43.164Z,-0.60
2018-02-08T04:03:09.803Z,-0.50
2018-02-08T04:05:36.025Z,-0.50
2018-02-08T04:08:02.287Z,-0.50
2018-02-08T04:10:29.230Z,-0.50
2018-02-08T04:12:55.451Z,-0.60
2018-02-08T04:15:21.711Z,-0.60
2018-02-08T04:17:48.297Z,-0.60
2018-02-08T04:20:14.557Z,-0.60
2018-02-08T04:22:40.749Z,-0.60
2018-02-08T04:25:06.979Z,-0.50
2018-02-08T04:27:33.540Z,-0.50
2018-02-08T04:30:00.510Z,-0.60
2018-02-08T04:32:26.714Z,-0.50
2018-02-08T04:34:53.324Z,-0.50
2018-02-08T04:37:19.526Z,-0.50
2018-02-08T04:39:57.914Z,-0.50
2018-02-08T04:54:36.258Z,-0.50
2018-02-08T04:57:04.158Z,-0.40
2018-02-08T04:59:32.094Z,-0.40
2018-02-08T05:02:00.554Z,-0.40
2018-02-08T05:04:28.486Z,-0.50
2018-02-08T05:06:57.127Z,-0.50
2018-02-08T05:09:24.658Z,-0.50
2018-02-08T05:11:52.159Z,-0.40
2018-02-08T05:14:20.078Z,-0.40
2018-02-08T05:16:47.582Z,-0.50
2018-02-08T05:19:16.108Z,-0.40
2018-02-08T05:21:43.633Z,-0.50
2018-02-08T05:24:11.629Z,-0.50
2018-02-08T05:26:39.158Z,-0.50
2018-02-08T05:29:07.091Z,-0.50
2018-02-08T05:31:35.020Z,-0.50
2018-02-08T05:34:02.536Z,-0.50
2018-02-08T05:36:30.462Z,-0.50
2018-02-08T05:38:58.418Z,-0.50
2018-02-08T05:41:25.949Z,-0.50
2018-02-08T05:43:53.841Z,-0.60
2018-02-08T05:46:21.359Z,-0.60
2018-02-08T05:48:49.272Z,-0.60
2018-02-08T05:51:17.291Z,-0.60
2018-02-08T05:53:44.798Z,-0.60
2018-02-08T05:56:12.334Z,-0.50
2018-02-08T05:58:41.102Z,-0.50
2018-02-08T06:01:08.630Z,-0.50
2018-02-08T06:03:36.542Z,-0.60
2018-02-08T06:06:04.062Z,-0.60
2018-02-08T06:08:31.578Z,-0.60
2018-02-08T06:10:59.105Z,-0.60
2018-02-08T06:13:26.638Z,-0.60
2018-02-08T06:15:54.289Z,-0.60
2018-02-08T06:18:23.013Z,-0.60
2018-02-08T06:20:50.659Z,-0.50
2018-02-08T06:23:18.170Z,-0.50
2018-02-08T06:25:46.453Z,-0.60
2018-02-08T06:28:15.819Z,-0.50
2018-02-08T06:30:44.118Z,-0.60
2018-02-08T06:33:12.022Z,-0.60
2018-02-08T06:35:39.954Z,-0.60
2018-02-08T06:38:07.944Z,-0.60
2018-02-08T06:40:35.466Z,-0.60
2018-02-08T06:43:03.382Z,-0.60
2018-02-08T06:45:31.317Z,-0.60
2018-02-08T06:47:58.926Z,-0.60
2018-02-08T06:50:26.451Z,-0.60
2018-02-08T06:52:53.975Z,-0.60
2018-02-08T06:55:21.949Z,-0.60
2018-02-08T06:57:49.462Z,-0.60
2018-02-08T07:00:16.974Z,-0.60
2018-02-08T07:02:44.935Z,-0.60
2018-02-08T07:05:12.594Z,-0.60
2018-02-08T07:07:40.894Z,-0.70
2018-02-08T07:10:08.518Z,-0.70
2018-02-08T07:12:36.126Z,-0.60
2018-02-08T07:15:04.034Z,-0.50
2018-02-08T07:17:32.122Z,-0.50
2018-02-08T07:20:00.044Z,-0.50
2018-02-08T07:22:27.990Z,-0.60
2018-02-08T07:24:55.889Z,-0.40
2018-02-08T07:27:23.418Z,-0.40
2018-02-08T07:29:51.388Z,-0.40
2018-02-08T07:32:18.881Z,-0.40
2018-02-08T07:34:46.811Z,-0.40
2018-02-08T07:37:14.314Z,-0.50
2018-02-08T07:39:42.987Z,-0.40
2018-02-08T07:42:10.566Z,-0.40
2018-02-08T07:44:38.084Z,-0.40
2018-02-08T07:47:06.125Z,-0.40
2018-02-08T07:49:33.638Z,-0.40
2018-02-08T07:52:01.538Z,-0.40
2018-02-08T07:54:29.058Z,-0.40
2018-02-08T07:56:56.974Z,-0.30
2018-02-08T07:59:24.975Z,-0.30
2018-02-08T08:01:52.493Z,-0.20
2018-02-08T08:04:20.419Z,-0.20
2018-02-08T08:06:48.350Z,-0.20
2018-02-08T08:09:15.885Z,-0.20
2018-02-08T08:11:43.873Z,-0.10
2018-02-08T08:14:11.416Z,-0.10
2018-02-08T08:16:39.318Z,0.00
2018-02-08T08:19:07.262Z,0.00
2018-02-08T08:21:34.778Z,0.00
2018-02-08T08:24:02.267Z,0.00
2018-02-08T08:26:29.794Z,0.00
2018-02-08T08:28:57.701Z,-0.10
2018-02-08T08:31:25.264Z,-0.10
2018-02-08T08:33:53.166Z,0.00
2018-02-08T08:36:20.700Z,0.00
2018-02-08T08:38:48.211Z,0.00
2018-02-08T08:41:16.142Z,0.10
2018-02-08T08:43:44.042Z,0.10
2018-02-08T08:46:11.962Z,0.10
2018-02-08T08:48:39.854Z,0.20
2018-02-08T08:51:08.150Z,0.20
2018-02-08T08:53:36.411Z,0.30
2018-02-08T08:56:04.806Z,0.40
2018-02-08T08:58:32.706Z,0.40
2018-02-08T09:01:00.658Z,0.40
2018-02-08T09:03:28.206Z,0.40
2018-02-08T09:05:55.814Z,0.50
2018-02-08T09:08:23.515Z,0.50
2018-02-08T09:10:51.017Z,0.50
2018-02-08T09:13:18.542Z,0.50
2018-02-08T09:15:46.439Z,0.60
2018-02-08T09:18:13.966Z,0.70
2018-02-08T09:20:41.893Z,0.70
2018-02-08T09:23:09.949Z,0.70
2018-02-08T09:25:38.230Z,0.80
2018-02-08T09:28:06.221Z,0.80
2018-02-08T09:30:33.882Z,0.90
2018-02-08T09:33:01.411Z,0.90
2018-02-08T09:35:29.309Z,1.00
2018-02-08T09:37:58.086Z,1.00
2018-02-08T09:40:25.974Z,1.10
2018-02-08T09:42:53.538Z,1.10
2018-02-08T09:45:21.047Z,1.10
2018-02-08T09:47:48.570Z,1.10
2018-02-08T09:50:16.490Z,1.20
2018-02-08T09:52:44.006Z,1.20
2018-02-08T09:55:11.704Z,1.20
2018-02-08T09:57:39.355Z,1.20
2018-02-08T10:00:07.298Z,1.20
2018-02-08T10:02:34.857Z,1.40
2018-02-08T10:05:02.519Z,1.50
2018-02-08T10:07:30.415Z,1.70
2018-02-08T10:09:58.046Z,1.60
2018-02-08T10:12:25.547Z,1.60
2018-02-08T10:14:53.475Z,1.60
2018-02-08T10:17:20.970Z,1.70
2018-02-08T10:19:48.696Z,1.70
2018-02-08T10:22:16.602Z,1.70
2018-02-08T10:24:44.120Z,1.70
2018-02-08T10:27:11.618Z,1.80
2018-02-08T10:29:39.542Z,1.80
2018-02-08T10:32:07.038Z,1.90
2018-02-08T10:34:34.950Z,1.90
2018-02-08T10:37:02.839Z,2.00
2018-02-08T10:39:30.337Z,2.10
2018-02-08T10:41:58.258Z,2.10
2018-02-08T10:44:25.756Z,2.20
2018-02-08T10:46:53.667Z,2.20
2018-02-08T10:49:21.934Z,2.30
2018-02-08T10:51:49.469Z,2.20
2018-02-08T10:54:17.092Z,2.30
2018-02-08T10:56:44.626Z,2.30
2018-02-08T10:59:12.118Z,2.40
2018-02-08T11:01:40.036Z,2.40
2018-02-08T11:04:07.933Z,2.50
2018-02-08T11:06:35.449Z,2.40
2018-02-08T11:09:02.973Z,2.40
2018-02-08T11:11:31.269Z,2.40
2018-02-08T11:13:58.765Z,2.40
2018-02-08T11:16:26.298Z,2.40
2018-02-08T11:18:53.920Z,2.50
2018-02-08T11:21:21.445Z,2.60
2018-02-08T11:23:49.030Z,2.50
2018-02-08T11:26:16.673Z,2.50
2018-02-08T11:28:44.350Z,2.50
2018-02-08T11:31:12.010Z,2.50
2018-02-08T11:33:39.525Z,2.40
2018-02-08T11:36:07.543Z,2.30
2018-02-08T11:38:35.074Z,2.40
2018-02-08T11:41:02.974Z,2.40
2018-02-08T11:43:30.529Z,2.40
2018-02-08T11:45:58.032Z,2.30
2018-02-08T11:48:25.546Z,2.30
2018-02-08T11:50:53.466Z,2.30
2018-02-08T11:53:20.985Z,2.30
2018-02-08T11:55:48.610Z,2.40
2018-02-08T11:58:16.133Z,2.50
2018-02-08T12:00:44.023Z,2.60
2018-02-08T12:03:11.549Z,2.60
2018-02-08T12:05:39.245Z,2.70
2018-02-08T12:08:06.758Z,2.80
2018-02-08T12:10:34.650Z,2.90
2018-02-08T12:13:03.025Z,3.00
2018-02-08T12:15:30.518Z,2.90
2018-02-08T12:17:58.020Z,2.80
2018-02-08T12:20:25.941Z,2.70
2018-02-08T12:22:53.460Z,2.70
2018-02-08T12:25:21.122Z,2.60
2018-02-08T12:27:48.627Z,2.60
2018-02-08T12:30:16.183Z,2.60
2018-02-08T12:32:43.698Z,2.60
2018-02-08T12:35:11.224Z,2.60
2018-02-08T12:37:39.498Z,2.60
2018-02-08T12:40:07.409Z,2.70
2018-02-08T12:42:35.969Z,2.70
2018-02-08T12:45:03.612Z,2.70
2018-02-08T12:47:31.154Z,2.70
2018-02-08T12:49:59.071Z,2.70
2018-02-08T12:52:26.590Z,2.70
2018-02-08T12:54:54.895Z,2.70
2018-02-08T12:57:22.784Z,2.60
2018-02-08T12:59:50.302Z,2.70
2018-02-08T13:02:17.835Z,2.80
2018-02-08T13:04:45.351Z,2.80
2018-02-08T13:07:13.290Z,2.80
2018-02-08T13:09:40.807Z,2.80
2018-02-08T13:12:08.725Z,2.80
2018-02-08T13:14:36.347Z,2.80
2018-02-08T13:17:03.874Z,2.90
2018-02-08T13:19:31.775Z,2.80
2018-02-08T13:21:59.814Z,2.70
2018-02-08T13:24:27.329Z,2.70
2018-02-08T13:26:55.237Z,2.70
2018-02-08T13:29:23.491Z,2.60
2018-02-08T13:31:51.406Z,2.50
2018-02-08T13:34:19.673Z,2.60
2018-02-08T13:36:47.206Z,2.50
2018-02-08T13:39:17.505Z,2.50
2018-02-08T13:41:45.414Z,2.50
2018-02-08T13:44:13.318Z,2.60
2018-02-08T13:46:40.862Z,2.60
2018-02-08T13:49:26.218Z,2.70
2018-02-08T13:51:59.392Z,2.60
2018-02-08T13:54:38.258Z,2.60
2018-02-08T13:57:21.046Z,2.60
2018-02-08T13:59:54.194Z,2.60
2018-02-08T14:02:21.726Z,2.40
2018-02-08T14:04:49.805Z,2.40
2018-02-08T14:07:17.802Z,2.50
2018-02-08T14:09:45.708Z,2.40
2018-02-08T14:12:13.226Z,2.40
2018-02-08T14:14:40.762Z,2.50
2018-02-08T14:17:08.830Z,2.50
2018-02-08T14:19:36.722Z,2.50
2018-02-08T14:22:04.256Z,2.50
2018-02-08T14:24:31.763Z,2.50
2018-02-08T14:26:59.667Z,2.50
2018-02-08T14:29:27.574Z,2.30
2018-02-08T14:31:55.515Z,2.30
2018-02-08T14:34:23.492Z,2.30
2018-02-08T14:36:50.994Z,2.20
2018-02-08T14:39:18.988Z,2.20
2018-02-08T14:41:46.883Z,2.20
2018-02-08T14:44:14.801Z,2.10
2018-02-08T14:46:43.091Z,2.10
2018-02-08T14:49:10.653Z,2.10
2018-02-08T14:51:38.182Z,2.20
2018-02-08T14:54:06.175Z,2.20
2018-02-08T14:56:33.696Z,2.10
2018-02-08T14:59:01.618Z,2.10
2018-02-08T15:01:29.158Z,2.10
2018-02-08T15:03:57.142Z,2.20
2018-02-08T15:06:25.505Z,2.20
2018-02-08T15:08:53.426Z,2.10
2018-02-08T15:11:21.343Z,2.00
2018-02-08T15:13:48.896Z,2.00
2018-02-08T15:16:16.496Z,1.90
2018-02-08T15:18:44.802Z,1.90
2018-02-08T15:21:12.746Z,1.90
2018-02-08T15:23:40.640Z,1.90
2018-02-08T15:26:08.198Z,1.80
2018-02-08T15:28:35.687Z,1.80
2018-02-08T15:31:03.294Z,1.80
2018-02-08T15:33:30.806Z,1.70
2018-02-08T15:35:58.414Z,1.80
2018-02-08T15:38:26.697Z,1.80
2018-02-08T15:40:54.232Z,1.80
2018-02-08T15:43:21.745Z,1.70
2018-02-08T15:45:49.468Z,1.70
2018-02-08T15:48:17.123Z,1.60
2018-02-08T15:50:44.644Z,1.50
2018-02-08T15:53:12.554Z,1.50
2018-02-08T15:55:40.070Z,1.50
2018-02-08T15:58:07.569Z,1.40
2018-02-08T16:00:35.215Z,1.40
2018-02-08T16:03:03.122Z,1.40
2018-02-08T16:05:30.663Z,1.50
2018-02-08T16:07:58.587Z,1.40
2018-02-08T16:10:26.250Z,1.40
2018-02-08T16:12:53.943Z,1.30
2018-02-08T16:15:21.859Z,1.30
2018-02-08T16:17:49.783Z,1.20
2018-02-08T16:20:17.698Z,1.20
2018-02-08T16:22:45.810Z,1.20
2018-02-08T16:25:13.725Z,1.20
2018-02-08T16:27:41.638Z,1.10
2018-02-08T16:30:09.162Z,1.10
2018-02-08T16:32:36.724Z,1.00
2018-02-08T16:35:04.622Z,0.90
2018-02-08T16:37:32.165Z,0.90
2018-02-08T16:39:59.742Z,0.90
2018-02-08T16:42:27.271Z,0.90
2018-02-08T16:44:54.916Z,0.80
2018-02-08T16:47:22.456Z,0.80
2018-02-08T16:49:50.459Z,0.80
2018-02-08T16:52:18.046Z,0.70
2018-02-08T16:54:45.538Z,0.70
2018-02-08T16:57:13.459Z,0.70
2018-02-08T16:59:41.361Z,0.70
2018-02-08T17:02:08.874Z,0.70
2018-02-08T17:04:36.382Z,0.70
2018-02-08T17:07:04.056Z,0.60
2018-02-08T17:09:31.566Z,0.50
2018-02-08T17:11:59.481Z,0.50
2018-02-08T17:14:26.996Z,0.50
2018-02-08T17:16:54.496Z,0.60
2018-02-08T17:19:22.094Z,0.60
2018-02-08T17:21:49.994Z,0.70
2018-02-08T17:24:17.918Z,0.70
2018-02-08T17:26:45.873Z,0.80
2018-02-08T17:29:13.578Z,0.80
2018-02-08T17:31:41.083Z,0.80
2018-02-08T17:34:08.611Z,0.80
2018-02-08T17:36:36.569Z,0.80
2018-02-08T17:39:04.100Z,0.80
2018-02-08T17:41:31.680Z,0.80
2018-02-08T17:43:59.193Z,0.80
2018-02-08T17:46:27.608Z,0.80
2018-02-08T17:48:55.254Z,0.80
2018-02-08T17:51:22.750Z,0.80
2018-02-08T17:53:50.267Z,0.70
2018-02-08T17:56:18.155Z,0.70
2018-02-08T17:58:47.179Z,0.70
2018-02-08T18:01:15.147Z,0.70
2018-02-08T18:03:42.661Z,0.60
2018-02-08T18:06:10.157Z,0.60
2018-02-08T18:08:38.060Z,0.60
2018-02-08T18:11:05.596Z,0.70
2018-02-08T18:13:33.282Z,0.60
2018-02-08T18:16:00.806Z,0.60
2018-02-08T18:18:28.727Z,0.60
2018-02-08T18:20:56.266Z,0.60
2018-02-08T18:23:23.778Z,0.50
2018-02-08T18:25:51.790Z,0.50
2018-02-08T18:28:19.451Z,0.50
2018-02-08T18:30:47.119Z,0.50
2018-02-08T18:33:14.627Z,0.50
2018-02-08T18:35:42.546Z,0.60
2018-02-08T18:38:10.434Z,0.60
2018-02-08T18:40:38.010Z,0.50
2018-02-08T18:43:05.483Z,0.50
2018-02-08T18:45:33.018Z,0.40
2018-02-08T18:48:00.918Z,0.40
2018-02-08T18:50:28.437Z,0.40
2018-02-08T18:52:56.450Z,0.40
2018-02-08T18:55:25.478Z,0.40
2018-02-08T18:57:53.410Z,0.50
2018-02-08T19:00:20.947Z,0.50
2018-02-08T19:02:48.455Z,0.50
2018-02-08T19:05:16.403Z,0.50
2018-02-08T19:07:43.914Z,0.40
2018-02-08T19:10:11.413Z,0.30
2018-02-08T19:12:38.940Z,0.30
2018-02-08T19:15:06.439Z,0.30
2018-02-08T19:17:33.982Z,0.30
2018-02-08T19:20:01.510Z,0.30
2018-02-08T19:22:29.042Z,0.30
2018-02-08T19:24:57.344Z,0.20
2018-02-08T19:27:24.884Z,0.30
2018-02-08T19:29:52.407Z,0.30
2018-02-08T19:32:20.326Z,0.30
2018-02-08T19:34:47.830Z,0.40
2018-02-08T19:37:15.762Z,0.40
2018-02-08T19:39:43.253Z,0.50
2018-02-08T19:42:11.170Z,0.50
2018-02-08T19:44:38.682Z,0.50
2018-02-08T19:47:06.346Z,0.60
2018-02-08T19:49:34.006Z,0.60
2018-02-08T19:54:30.787Z,0.70
2018-02-08T19:56:58.315Z,0.70
2018-02-08T19:59:25.815Z,0.70
2018-02-08T20:04:22.234Z,0.70
2018-02-08T20:06:50.158Z,0.60
2018-02-08T20:09:18.055Z,0.60
2018-02-08T20:11:46.346Z,0.60
2018-02-08T20:14:20.238Z,0.70
2018-02-08T20:16:47.765Z,0.60
2018-02-08T20:19:15.670Z,0.60
2018-02-08T20:21:44.321Z,0.60
2018-02-08T20:24:12.595Z,0.60
2018-02-08T20:26:40.160Z,0.60
2018-02-08T20:29:07.662Z,0.50
2018-02-08T20:31:35.183Z,0.50
2018-02-08T20:34:02.690Z,0.50
2018-02-08T20:36:30.223Z,0.50
2018-02-08T20:38:57.854Z,0.60
2018-02-08T20:41:25.762Z,0.70
2018-02-08T20:43:53.264Z,0.70
2018-02-08T20:46:20.809Z,0.70
2018-02-08T20:48:48.334Z,0.70
2018-02-08T20:51:16.266Z,0.70
2018-02-08T20:53:43.764Z,0.70
2018-02-08T20:56:11.454Z,0.70
2018-02-08T20:58:38.976Z,0.70
2018-02-08T21:01:06.882Z,0.60
2018-02-08T21:03:34.402Z,0.60
2018-02-08T21:06:01.952Z,0.60
2018-02-08T21:08:29.538Z,0.50
2018-02-08T21:10:57.046Z,0.40
2018-02-08T21:13:24.598Z,0.30
2018-02-08T21:15:52.897Z,0.40
2018-02-08T21:18:20.858Z,0.30
2018-02-08T21:20:48.752Z,0.30
2018-02-08T21:23:16.662Z,0.40
2018-02-08T21:25:44.554Z,0.30
2018-02-08T21:28:12.093Z,0.30
2018-02-08T21:30:39.602Z,0.30
2018-02-08T21:33:07.130Z,0.20
2018-02-08T21:35:34.630Z,0.20
2018-02-08T21:38:02.554Z,0.20
2018-02-08T21:40:30.523Z,0.30
2018-02-08T21:42:58.046Z,0.20
2018-02-08T21:45:25.955Z,0.10
2018-02-08T21:47:54.242Z,0.10
2018-02-08T21:50:21.786Z,0.10
2018-02-08T21:52:49.310Z,0.10
2018-02-08T21:55:17.218Z,0.00
2018-02-08T21:57:44.746Z,-0.10
2018-02-08T22:00:12.257Z,-0.10
2018-02-08T22:02:39.795Z,-0.10
2018-02-08T22:05:07.311Z,-0.10
2018-02-08T22:07:34.825Z,0.00
2018-02-08T22:10:03.138Z,0.00
2018-02-08T22:12:30.669Z,0.00
2018-02-08T22:14:58.195Z,0.00
2018-02-08T22:17:25.715Z,0.10
2018-02-08T22:19:53.297Z,0.10
2018-02-08T22:22:21.214Z,0.20
2018-02-08T22:24:49.119Z,0.20
2018-02-08T22:27:16.653Z,0.20
2018-02-08T22:29:44.610Z,0.20
2018-02-08T22:32:12.554Z,0.30
2018-02-08T22:34:40.255Z,0.40
2018-02-08T22:37:07.908Z,0.30
2018-02-08T22:39:35.979Z,0.40
2018-02-08T22:42:03.487Z,0.40
2018-02-08T22:44:31.010Z,0.40
2018-02-08T22:46:58.526Z,0.30
2018-02-08T22:49:26.456Z,0.20
2018-02-08T22:51:53.954Z,0.20
2018-02-08T22:54:21.862Z,0.00
2018-02-08T22:56:49.374Z,0.00
2018-02-08T22:59:17.035Z,0.00
2018-02-08T23:01:44.935Z,0.10
2018-02-08T23:04:12.469Z,0.10
2018-02-08T23:06:40.365Z,0.00
2018-02-08T23:09:07.890Z,0.00
2018-02-08T23:11:35.394Z,0.00
2018-02-08T23:14:02.906Z,0.10
2018-02-08T23:16:31.182Z,0.10
2018-02-08T23:18:58.707Z,0.10
2018-02-08T23:21:26.220Z,0.10
2018-02-08T23:23:54.145Z,0.20
2018-02-08T23:26:22.038Z,0.30
2018-02-08T23:28:49.765Z,0.30
2018-02-08T23:31:17.268Z,0.30
2018-02-08T23:33:45.188Z,0.40
2018-02-08T23:36:12.677Z,0.50
2018-02-08T23:38:40.210Z,0.50
2018-02-08T23:41:08.258Z,0.50
2018-02-08T23:43:35.775Z,0.50
2018-02-08T23:46:03.271Z,0.50
2018-02-08T23:48:30.770Z,0.40
2018-02-08T23:50:58.292Z,0.20
2018-02-08T23:53:25.809Z,0.10
2018-02-08T23:55:53.720Z,0.10
2018-02-08T23:58:21.249Z,0.10
